sensor_id;sensor_type;location;lat;lon;timestamp;temperature;humidity
29303;DHT22;60019;45.556;12.004;2023-03-25T00:04:42;18.90;96.10
29303;DHT22;60019;45.556;12.004;2023-03-25T00:10:44;18.80;96.20
29303;DHT22;60019;45.556;12.004;2023-03-25T00:16:45;18.70;96.30
29303;DHT22;60019;45.556;12.004;2023-03-25T00:22:48;18.70;96.40
29303;DHT22;60019;45.556;12.004;2023-03-25T00:28:50;18.60;96.50
29303;DHT22;60019;45.556;12.004;2023-03-25T00:34:51;18.50;96.60
29303;DHT22;60019;45.556;12.004;2023-03-25T00:40:53;18.50;96.70
29303;DHT22;60019;45.556;12.004;2023-03-25T00:46:55;18.30;96.70
29303;DHT22;60019;45.556;12.004;2023-03-25T00:52:56;18.30;96.80
29303;DHT22;60019;45.556;12.004;2023-03-25T00:58:58;18.20;96.90
29303;DHT22;60019;45.556;12.004;2023-03-25T01:05:01;18.20;96.90
29303;DHT22;60019;45.556;12.004;2023-03-25T01:11:03;18.10;97.00
29303;DHT22;60019;45.556;12.004;2023-03-25T01:17:05;18.00;97.10
29303;DHT22;60019;45.556;12.004;2023-03-25T01:23:06;18.00;97.20
29303;DHT22;60019;45.556;12.004;2023-03-25T01:29:11;18.00;97.30
29303;DHT22;60019;45.556;12.004;2023-03-25T01:35:13;17.90;97.40
29303;DHT22;60019;45.556;12.004;2023-03-25T01:41:15;17.90;97.50
29303;DHT22;60019;45.556;12.004;2023-03-25T01:47:16;17.80;97.60
29303;DHT22;60019;45.556;12.004;2023-03-25T01:53:18;17.80;97.60
29303;DHT22;60019;45.556;12.004;2023-03-25T01:59:22;17.80;97.70
29303;DHT22;60019;45.556;12.004;2023-03-25T02:11:53;17.70;97.80
29303;DHT22;60019;45.556;12.004;2023-03-25T02:18:27;17.60;97.80
29303;DHT22;60019;45.556;12.004;2023-03-25T02:50:49;17.30;98.20
29303;DHT22;60019;45.556;12.004;2023-03-25T02:56:56;17.20;98.20
29303;DHT22;60019;45.556;12.004;2023-03-25T03:03:01;17.20;98.30
29303;DHT22;60019;45.556;12.004;2023-03-25T03:09:20;17.10;98.40
29303;DHT22;60019;45.556;12.004;2023-03-25T03:16:21;17.10;98.40
29303;DHT22;60019;45.556;12.004;2023-03-25T03:22:36;17.10;98.50
29303;DHT22;60019;45.556;12.004;2023-03-25T03:34:51;17.00;98.60
29303;DHT22;60019;45.556;12.004;2023-03-25T03:41:00;16.90;98.70
29303;DHT22;60019;45.556;12.004;2023-03-25T03:47:11;16.90;98.80
29303;DHT22;60019;45.556;12.004;2023-03-25T03:53:35;16.80;98.80
29303;DHT22;60019;45.556;12.004;2023-03-25T04:05:56;16.70;99.00
29303;DHT22;60019;45.556;12.004;2023-03-25T04:12:04;16.70;99.00
29303;DHT22;60019;45.556;12.004;2023-03-25T04:18:07;16.60;99.00
29303;DHT22;60019;45.556;12.004;2023-03-25T04:24:10;16.60;99.00
29303;DHT22;60019;45.556;12.004;2023-03-25T04:30:11;16.50;99.10
29303;DHT22;60019;45.556;12.004;2023-03-25T04:36:14;16.40;99.10
29303;DHT22;60019;45.556;12.004;2023-03-25T04:42:15;16.40;99.10
29303;DHT22;60019;45.556;12.004;2023-03-25T04:48:22;16.30;99.10
29303;DHT22;60019;45.556;12.004;2023-03-25T04:54:24;16.30;99.20
29303;DHT22;60019;45.556;12.004;2023-03-25T05:00:26;16.20;99.20
29303;DHT22;60019;45.556;12.004;2023-03-25T05:06:28;16.20;99.30
29303;DHT22;60019;45.556;12.004;2023-03-25T05:12:29;16.10;99.30
29303;DHT22;60019;45.556;12.004;2023-03-25T05:18:31;16.10;99.40
29303;DHT22;60019;45.556;12.004;2023-03-25T05:24:32;16.10;99.40
29303;DHT22;60019;45.556;12.004;2023-03-25T05:30:36;16.10;99.50
29303;DHT22;60019;45.556;12.004;2023-03-25T05:36:39;16.00;99.50
29303;DHT22;60019;45.556;12.004;2023-03-25T05:42:42;15.90;99.40
29303;DHT22;60019;45.556;12.004;2023-03-25T05:48:47;15.80;99.30
29303;DHT22;60019;45.556;12.004;2023-03-25T05:54:48;15.80;99.20
29303;DHT22;60019;45.556;12.004;2023-03-25T06:00:52;15.70;99.20
29303;DHT22;60019;45.556;12.004;2023-03-25T06:06:54;15.80;99.40
29303;DHT22;60019;45.556;12.004;2023-03-25T06:12:57;15.80;99.50
29303;DHT22;60019;45.556;12.004;2023-03-25T06:18:58;15.80;99.50
29303;DHT22;60019;45.556;12.004;2023-03-25T06:25:00;16.00;99.80
29303;DHT22;60019;45.556;12.004;2023-03-25T06:37:54;16.70;99.90
29303;DHT22;60019;45.556;12.004;2023-03-25T06:44:05;17.10;99.90
29303;DHT22;60019;45.556;12.004;2023-03-25T06:50:27;17.50;99.80
29303;DHT22;60019;45.556;12.004;2023-03-25T06:56:28;17.90;99.80
29303;DHT22;60019;45.556;12.004;2023-03-25T07:02:30;18.20;99.70
29303;DHT22;60019;45.556;12.004;2023-03-25T07:08:32;18.50;99.70
29303;DHT22;60019;45.556;12.004;2023-03-25T07:14:34;18.80;99.60
29303;DHT22;60019;45.556;12.004;2023-03-25T07:20:36;18.90;99.50
29303;DHT22;60019;45.556;12.004;2023-03-25T07:26:37;19.10;99.50
29303;DHT22;60019;45.556;12.004;2023-03-25T07:32:39;19.40;99.40
29303;DHT22;60019;45.556;12.004;2023-03-25T07:38:40;19.50;99.20
29303;DHT22;60019;45.556;12.004;2023-03-25T07:44:42;19.60;99.20
29303;DHT22;60019;45.556;12.004;2023-03-25T07:50:43;19.70;99.20
29303;DHT22;60019;45.556;12.004;2023-03-25T07:56:46;19.80;99.10
29303;DHT22;60019;45.556;12.004;2023-03-25T08:02:47;19.90;99.00
29303;DHT22;60019;45.556;12.004;2023-03-25T08:08:49;20.10;98.80
29303;DHT22;60019;45.556;12.004;2023-03-25T08:14:51;20.20;98.80
29303;DHT22;60019;45.556;12.004;2023-03-25T08:20:53;20.40;98.70
29303;DHT22;60019;45.556;12.004;2023-03-25T08:26:55;20.50;98.60
29303;DHT22;60019;45.556;12.004;2023-03-25T08:32:56;20.50;98.50
29303;DHT22;60019;45.556;12.004;2023-03-25T08:38:58;20.60;98.50
29303;DHT22;60019;45.556;12.004;2023-03-25T08:45:00;20.70;98.40
29303;DHT22;60019;45.556;12.004;2023-03-25T08:51:02;20.80;98.30
29303;DHT22;60019;45.556;12.004;2023-03-25T08:57:04;20.90;98.10
29303;DHT22;60019;45.556;12.004;2023-03-25T09:03:06;21.00;98.00
29303;DHT22;60019;45.556;12.004;2023-03-25T09:09:07;21.20;97.90
29303;DHT22;60019;45.556;12.004;2023-03-25T09:15:12;21.30;97.80
29303;DHT22;60019;45.556;12.004;2023-03-25T09:21:20;21.30;97.70
29303;DHT22;60019;45.556;12.004;2023-03-25T09:27:22;21.40;97.80
29303;DHT22;60019;45.556;12.004;2023-03-25T09:33:23;21.50;97.40
29303;DHT22;60019;45.556;12.004;2023-03-25T09:39:27;21.60;97.20
29303;DHT22;60019;45.556;12.004;2023-03-25T09:45:37;21.70;97.10
29303;DHT22;60019;45.556;12.004;2023-03-25T09:51:41;21.80;96.90
29303;DHT22;60019;45.556;12.004;2023-03-25T09:57:46;21.90;96.80
29303;DHT22;60019;45.556;12.004;2023-03-25T10:22:40;22.10;96.20
29303;DHT22;60019;45.556;12.004;2023-03-25T10:29:09;22.30;96.10
29303;DHT22;60019;45.556;12.004;2023-03-25T10:35:18;22.40;95.90
29303;DHT22;60019;45.556;12.004;2023-03-25T10:41:27;22.60;96.10
29303;DHT22;60019;45.556;12.004;2023-03-25T10:47:36;22.70;95.70
29303;DHT22;60019;45.556;12.004;2023-03-25T10:53:45;22.70;95.70
29303;DHT22;60019;45.556;12.004;2023-03-25T11:00:16;22.70;95.70
29303;DHT22;60019;45.556;12.004;2023-03-25T11:06:28;22.80;95.60
29303;DHT22;60019;45.556;12.004;2023-03-25T11:12:31;22.90;95.50
29303;DHT22;60019;45.556;12.004;2023-03-25T11:18:38;23.00;95.30
29303;DHT22;60019;45.556;12.004;2023-03-25T11:24:43;23.20;95.20
29303;DHT22;60019;45.556;12.004;2023-03-25T11:31:05;23.30;95.30
29303;DHT22;60019;45.556;12.004;2023-03-25T11:37:15;23.30;94.90
29303;DHT22;60019;45.556;12.004;2023-03-25T11:43:23;23.30;94.80
29303;DHT22;60019;45.556;12.004;2023-03-25T11:49:25;23.40;94.80
29303;DHT22;60019;45.556;12.004;2023-03-25T11:55:30;23.40;94.70
29303;DHT22;60019;45.556;12.004;2023-03-25T12:08:41;23.50;94.50
29303;DHT22;60019;45.556;12.004;2023-03-25T12:34:27;22.90;94.70
29303;DHT22;60019;45.556;12.004;2023-03-25T13:05:20;22.70;94.30
29303;DHT22;60019;45.556;12.004;2023-03-25T13:11:40;22.70;94.10
29303;DHT22;60019;45.556;12.004;2023-03-25T13:24:02;22.60;93.80
29303;DHT22;60019;45.556;12.004;2023-03-25T13:30:13;22.60;94.10
29303;DHT22;60019;45.556;12.004;2023-03-25T13:36:30;22.50;94.20
29303;DHT22;60019;45.556;12.004;2023-03-25T13:48:59;22.50;93.70
29303;DHT22;60019;45.556;12.004;2023-03-25T13:55:20;22.50;93.60
29303;DHT22;60019;45.556;12.004;2023-03-25T14:01:51;22.40;93.50
29303;DHT22;60019;45.556;12.004;2023-03-25T14:14:22;22.20;93.50
29303;DHT22;60019;45.556;12.004;2023-03-25T14:20:32;22.10;93.40
29303;DHT22;60019;45.556;12.004;2023-03-25T14:26:35;22.00;93.10
29303;DHT22;60019;45.556;12.004;2023-03-25T14:32:39;21.90;93.10
29303;DHT22;60019;45.556;12.004;2023-03-25T14:38:52;21.90;92.80
29303;DHT22;60019;45.556;12.004;2023-03-25T14:51:41;21.80;92.00
29303;DHT22;60019;45.556;12.004;2023-03-25T14:57:44;21.80;91.70
29303;DHT22;60019;45.556;12.004;2023-03-25T15:03:47;21.80;91.60
29303;DHT22;60019;45.556;12.004;2023-03-25T15:09:53;21.80;91.40
29303;DHT22;60019;45.556;12.004;2023-03-25T15:16:15;21.80;91.50
29303;DHT22;60019;45.556;12.004;2023-03-25T15:22:20;21.70;91.70
29303;DHT22;60019;45.556;12.004;2023-03-25T15:28:44;21.60;91.90
29303;DHT22;60019;45.556;12.004;2023-03-25T15:41:34;21.40;92.40
29303;DHT22;60019;45.556;12.004;2023-03-25T15:48:01;21.40;92.60
29303;DHT22;60019;45.556;12.004;2023-03-25T16:06:40;21.20;92.80
29303;DHT22;60019;45.556;12.004;2023-03-25T16:12:46;21.20;92.90
29303;DHT22;60019;45.556;12.004;2023-03-25T16:18:49;21.20;93.00
29303;DHT22;60019;45.556;12.004;2023-03-25T16:24:50;21.10;93.20
29303;DHT22;60019;45.556;12.004;2023-03-25T16:30:53;21.00;93.30
29303;DHT22;60019;45.556;12.004;2023-03-25T16:36:55;20.90;93.50
29303;DHT22;60019;45.556;12.004;2023-03-25T16:43:16;20.80;93.60
29303;DHT22;60019;45.556;12.004;2023-03-25T16:49:32;20.70;93.80
29303;DHT22;60019;45.556;12.004;2023-03-25T17:01:58;21.10;93.60
29303;DHT22;60019;45.556;12.004;2023-03-25T17:08:09;21.10;93.60
29303;DHT22;60019;45.556;12.004;2023-03-25T17:14:19;21.20;93.60
29303;DHT22;60019;45.556;12.004;2023-03-25T17:20:29;21.20;93.40
29303;DHT22;60019;45.556;12.004;2023-03-25T17:26:54;21.30;93.20
29303;DHT22;60019;45.556;12.004;2023-03-25T17:39:34;21.40;92.80
29303;DHT22;60019;45.556;12.004;2023-03-25T17:45:36;21.30;92.70
29303;DHT22;60019;45.556;12.004;2023-03-25T17:51:38;21.40;92.60
29303;DHT22;60019;45.556;12.004;2023-03-25T17:57:41;21.30;92.40
29303;DHT22;60019;45.556;12.004;2023-03-25T18:03:43;21.30;92.30
29303;DHT22;60019;45.556;12.004;2023-03-25T18:09:44;21.30;92.30
29303;DHT22;60019;45.556;12.004;2023-03-25T18:15:46;21.20;92.20
29303;DHT22;60019;45.556;12.004;2023-03-25T18:21:49;21.20;92.10
29303;DHT22;60019;45.556;12.004;2023-03-25T18:27:51;21.20;92.10
29303;DHT22;60019;45.556;12.004;2023-03-25T18:33:53;21.10;92.10
29303;DHT22;60019;45.556;12.004;2023-03-25T18:39:56;21.10;92.00
29303;DHT22;60019;45.556;12.004;2023-03-25T18:45:58;20.90;91.90
29303;DHT22;60019;45.556;12.004;2023-03-25T18:51:59;20.80;92.00
29303;DHT22;60019;45.556;12.004;2023-03-25T18:58:02;20.60;92.10
29303;DHT22;60019;45.556;12.004;2023-03-25T19:04:04;20.40;92.10
29303;DHT22;60019;45.556;12.004;2023-03-25T19:10:06;20.30;92.20
29303;DHT22;60019;45.556;12.004;2023-03-25T19:16:09;20.20;92.30
29303;DHT22;60019;45.556;12.004;2023-03-25T19:22:11;20.00;92.30
29303;DHT22;60019;45.556;12.004;2023-03-25T19:28:21;19.90;92.40
29303;DHT22;60019;45.556;12.004;2023-03-25T19:34:22;19.80;92.40
29303;DHT22;60019;45.556;12.004;2023-03-25T19:40:25;19.70;92.50
29303;DHT22;60019;45.556;12.004;2023-03-25T19:46:28;19.60;92.60
29303;DHT22;60019;45.556;12.004;2023-03-25T19:52:31;19.50;92.60
29303;DHT22;60019;45.556;12.004;2023-03-25T19:58:33;19.20;92.60
29303;DHT22;60019;45.556;12.004;2023-03-25T20:04:35;18.90;92.80
29303;DHT22;60019;45.556;12.004;2023-03-25T20:10:38;18.90;92.90
29303;DHT22;60019;45.556;12.004;2023-03-25T20:16:39;18.90;93.00
29303;DHT22;60019;45.556;12.004;2023-03-25T20:22:41;18.90;93.10
29303;DHT22;60019;45.556;12.004;2023-03-25T20:28:43;18.90;93.10
29303;DHT22;60019;45.556;12.004;2023-03-25T20:34:45;18.80;93.10
29303;DHT22;60019;45.556;12.004;2023-03-25T20:40:47;18.80;93.30
29303;DHT22;60019;45.556;12.004;2023-03-25T20:46:48;18.70;93.30
29303;DHT22;60019;45.556;12.004;2023-03-25T20:52:50;18.60;93.40
29303;DHT22;60019;45.556;12.004;2023-03-25T20:58:52;18.50;93.50
29303;DHT22;60019;45.556;12.004;2023-03-25T21:04:54;18.40;93.60
29303;DHT22;60019;45.556;12.004;2023-03-25T21:10:59;18.40;93.70
29303;DHT22;60019;45.556;12.004;2023-03-25T21:17:01;18.30;93.80
29303;DHT22;60019;45.556;12.004;2023-03-25T21:23:04;18.30;93.80
29303;DHT22;60019;45.556;12.004;2023-03-25T21:29:07;18.30;93.90
29303;DHT22;60019;45.556;12.004;2023-03-25T21:35:09;18.20;94.00
29303;DHT22;60019;45.556;12.004;2023-03-25T21:41:11;18.20;94.10
29303;DHT22;60019;45.556;12.004;2023-03-25T21:47:12;18.10;94.10
29303;DHT22;60019;45.556;12.004;2023-03-25T21:53:14;18.10;94.20
29303;DHT22;60019;45.556;12.004;2023-03-25T21:59:19;18.00;94.20
29303;DHT22;60019;45.556;12.004;2023-03-25T22:05:21;18.00;94.30
29303;DHT22;60019;45.556;12.004;2023-03-25T22:11:26;18.00;94.30
29303;DHT22;60019;45.556;12.004;2023-03-25T22:17:29;17.90;94.40
29303;DHT22;60019;45.556;12.004;2023-03-25T22:23:31;17.90;94.40
29303;DHT22;60019;45.556;12.004;2023-03-25T22:29:33;17.90;94.50
29303;DHT22;60019;45.556;12.004;2023-03-25T22:35:35;17.80;94.50
29303;DHT22;60019;45.556;12.004;2023-03-25T22:41:38;17.80;94.50
29303;DHT22;60019;45.556;12.004;2023-03-25T22:47:40;17.80;94.60
29303;DHT22;60019;45.556;12.004;2023-03-25T22:53:42;17.70;94.60
29303;DHT22;60019;45.556;12.004;2023-03-25T22:59:44;17.70;94.70
29303;DHT22;60019;45.556;12.004;2023-03-25T23:06:06;17.60;94.70
29303;DHT22;60019;45.556;12.004;2023-03-25T23:12:10;17.60;94.80
29303;DHT22;60019;45.556;12.004;2023-03-25T23:18:12;17.50;94.80
29303;DHT22;60019;45.556;12.004;2023-03-25T23:24:14;17.50;94.80
29303;DHT22;60019;45.556;12.004;2023-03-25T23:30:16;17.50;94.90
29303;DHT22;60019;45.556;12.004;2023-03-25T23:36:18;17.40;94.90
29303;DHT22;60019;45.556;12.004;2023-03-25T23:42:20;17.40;95.00
29303;DHT22;60019;45.556;12.004;2023-03-25T23:48:23;17.30;95.00
29303;DHT22;60019;45.556;12.004;2023-03-25T23:54:24;17.30;95.10
